Time;durP1;ratioP1;P1;durP2;ratioP2;P2;SDS_P1;SDS_P2;PMS_P1;PMS_P2;Temp;Humidity;BMP_temperature;BMP_pressure;BME280_temperature;BME280_humidity;BME280_pressure;Samples;Min_cycle;Max_cycle;Signal;HPM_P1;HPM_P2
2023/09/03 00:00:38;;;;;;;0.10;0.10;;;;;;;19.80;100.00;101851.25;2089855;28;20185;-67
2023/09/03 00:01:38;;;;;;;0.20;0.20;;;;;;;19.82;100.00;101848.78;2089936;28;20173;-67
2023/09/03 00:02:39;;;;;;;0.10;0.10;;;;;;;19.85;100.00;101855.50;2089889;28;20422;-67
2023/09/03 00:03:39;;;;;;;0.20;0.20;;;;;;;19.85;100.00;101855.50;2090080;28;20171;-66
2023/09/03 00:04:40;;;;;;;0.13;0.13;;;;;;;19.87;100.00;101850.16;2089965;28;20173;-66
2023/09/03 00:05:51;;;;;;;0.20;0.20;;;;;;;19.87;100.00;101847.34;2089918;28;20172;-66
2023/09/03 00:06:51;;;;;;;0.13;0.13;;;;;;;19.86;100.00;101854.25;2089950;28;20172;-66
2023/09/03 00:07:52;;;;;;;0.10;0.10;;;;;;;19.86;100.00;101852.19;2089983;28;20418;-66
2023/09/03 00:08:52;;;;;;;0.20;0.20;;;;;;;19.87;100.00;101853.78;2089938;28;20172;-66
2023/09/03 00:09:52;;;;;;;0.20;0.20;;;;;;;19.88;100.00;101849.72;2089610;28;20179;-66
2023/09/03 00:10:53;;;;;;;0.17;0.13;;;;;;;19.90;100.00;101849.25;2097499;28;20180;-66
2023/09/03 00:11:53;;;;;;;0.30;0.30;;;;;;;19.91;100.00;101851.56;2097597;28;20250;-66
2023/09/03 00:12:54;;;;;;;0.23;0.23;;;;;;;19.91;100.00;101845.94;2089964;28;20251;-66
2023/09/03 00:13:54;;;;;;;0.10;0.10;;;;;;;19.90;100.00;101850.00;2089515;28;20231;-66
2023/09/03 00:14:55;;;;;;;0.87;0.33;;;;;;;19.93;100.00;101859.56;2089599;28;20211;-66
2023/09/03 00:15:55;;;;;;;0.20;0.20;;;;;;;19.91;100.00;101850.81;2089909;28;20168;-66
2023/09/03 00:16:55;;;;;;;0.30;0.30;;;;;;;19.90;100.00;101855.63;2089928;28;20185;-66
2023/09/03 00:17:56;;;;;;;0.10;0.10;;;;;;;19.88;100.00;101838.47;2089919;28;20175;-67
2023/09/03 00:18:56;;;;;;;0.23;0.20;;;;;;;19.95;100.00;101845.81;2089806;28;20172;-66
2023/09/03 00:19:57;;;;;;;2.30;0.83;;;;;;;19.96;100.00;101850.94;2089871;28;20683;-66
2023/09/03 00:21:00;;;;;;;0.20;0.10;;;;;;;19.97;100.00;101851.75;2089811;28;20642;-67
2023/09/03 00:22:01;;;;;;;0.10;0.10;;;;;;;19.98;100.00;101845.66;2089828;28;20183;-66
2023/09/03 00:23:01;;;;;;;0.10;0.10;;;;;;;19.48;100.00;101764.66;2089859;28;21011;-66
2023/09/03 00:24:02;;;;;;;0.10;0.10;;;;;;;20.04;100.00;101846.59;2089873;28;20199;-67
2023/09/03 00:25:03;;;;;;;0.10;0.07;;;;;;;20.05;100.00;101845.34;2089628;28;20173;-66
2023/09/03 00:26:04;;;;;;;0.10;0.10;;;;;;;20.06;100.00;101840.50;2088762;28;20196;-66
2023/09/03 00:27:04;;;;;;;0.10;0.10;;;;;;;20.06;100.00;101843.31;2089188;28;20645;-66
2023/09/03 00:28:05;;;;;;;0.20;0.20;;;;;;;20.05;100.00;101847.38;2083416;28;20842;-66
2023/09/03 00:29:05;;;;;;;0.30;0.20;;;;;;;20.08;100.00;101844.44;2089667;28;20168;-66
2023/09/03 00:30:06;;;;;;;0.10;0.10;;;;;;;20.09;100.00;101843.19;2089405;28;20203;-66
2023/09/03 00:31:08;;;;;;;0.40;0.33;;;;;;;20.04;100.00;101843.78;2081569;28;20169;-66
2023/09/03 00:32:08;;;;;;;0.20;0.20;;;;;;;20.10;100.00;101853.19;2088782;28;20687;-67
2023/09/03 00:33:08;;;;;;;0.20;0.20;;;;;;;19.31;100.00;101729.66;2089713;28;20913;-66
2023/09/03 00:34:09;;;;;;;0.37;0.37;;;;;;;20.13;100.00;101843.81;2089506;28;20211;-66
2023/09/03 00:35:09;;;;;;;0.10;0.10;;;;;;;20.11;100.00;101840.69;2089674;28;20173;-67
2023/09/03 00:36:10;;;;;;;0.10;0.10;;;;;;;20.10;100.00;101853.19;2089856;28;20661;-66
2023/09/03 00:37:10;;;;;;;0.30;0.30;;;;;;;20.09;100.00;101848.03;2089219;28;20256;-67
2023/09/03 00:38:10;;;;;;;0.10;0.10;;;;;;;20.09;100.00;101839.56;2081481;28;20212;-67
2023/09/03 00:39:11;;;;;;;0.17;0.17;;;;;;;20.09;100.00;101846.00;2081571;28;20173;-66
2023/09/03 00:40:11;;;;;;;0.33;0.30;;;;;;;20.09;100.00;101839.56;2081549;28;20169;-66
2023/09/03 00:41:12;;;;;;;0.33;0.33;;;;;;;20.05;100.00;101856.59;2081490;28;20254;-66
2023/09/03 00:42:12;;;;;;;0.40;0.33;;;;;;;20.01;100.00;101843.94;2081519;28;20872;-66
2023/09/03 00:43:13;;;;;;;0.20;0.20;;;;;;;19.11;100.00;101708.81;2081480;28;20169;-66
2023/09/03 00:44:14;;;;;;;0.57;0.20;;;;;;;20.00;100.00;101839.56;2081446;28;20191;-67
2023/09/03 00:45:14;;;;;;;0.20;0.20;;;;;;;19.94;100.00;101830.94;2081347;28;20180;-67
2023/09/03 00:46:15;;;;;;;0.57;0.27;;;;;;;19.97;100.00;101834.88;2081492;28;20419;-67
2023/09/03 00:47:17;;;;;;;0.10;0.10;;;;;;;19.97;100.00;101835.66;2081413;28;20177;-67
2023/09/03 00:48:23;;;;;;;0.00;0.00;;;;;;;19.92;100.00;101841.91;2081345;28;20176;-66
2023/09/03 00:49:25;;;;;;;0.10;0.10;;;;;;;19.96;100.00;101842.50;2083539;28;20464;-66
2023/09/03 00:50:27;;;;;;;0.10;0.10;;;;;;;19.95;100.00;101854.25;2089704;28;20447;-66
2023/09/03 00:51:27;;;;;;;0.20;0.20;;;;;;;19.87;100.00;101836.09;2089712;28;20418;-66
2023/09/03 00:52:30;;;;;;;0.10;0.10;;;;;;;19.90;100.00;101849.25;2089672;28;20981;-66
2023/09/03 00:53:34;;;;;;;0.10;0.10;;;;;;;19.93;100.00;101846.28;2089781;28;20180;-66
2023/09/03 00:54:35;;;;;;;0.27;0.23;;;;;;;19.93;100.00;101840.66;2089545;28;20414;-66
2023/09/03 00:55:37;;;;;;;0.20;0.20;;;;;;;19.95;100.00;101843.00;2089556;28;20419;-67
2023/09/03 00:56:38;;;;;;;0.63;0.53;;;;;;;19.93;100.00;101845.47;2089548;28;20180;-66
2023/09/03 00:57:39;;;;;;;0.47;0.33;;;;;;;19.93;100.00;101837.84;2089549;28;20794;-66
2023/09/03 00:58:40;;;;;;;0.10;0.10;;;;;;;19.89;100.00;101842.81;2089729;28;20537;-66
2023/09/03 00:59:42;;;;;;;0.10;0.10;;;;;;;19.79;100.00;101820.78;2089671;28;20255;-66
2023/09/03 01:00:43;;;;;;;0.30;0.30;;;;;;;19.89;100.00;101837.19;2089603;28;20419;-66
2023/09/03 01:01:44;;;;;;;0.10;0.10;;;;;;;19.87;100.00;101838.91;2089735;28;20422;-66
2023/09/03 01:02:47;;;;;;;0.20;0.20;;;;;;;19.81;100.00;101837.97;2089658;28;20179;-66
2023/09/03 01:03:48;;;;;;;0.20;0.20;;;;;;;19.78;100.00;101841.72;2089602;28;20210;-66
2023/09/03 01:04:48;;;;;;;0.13;0.10;;;;;;;19.74;100.00;101833.44;2089588;28;20494;-67
2023/09/03 01:05:49;;;;;;;0.10;0.10;;;;;;;19.79;100.00;101840.47;2089607;28;20932;-66
2023/09/03 01:06:51;;;;;;;0.10;0.10;;;;;;;19.80;100.00;101839.22;2089699;28;20168;-66
2023/09/03 01:07:52;;;;;;;0.17;0.17;;;;;;;19.79;100.00;101837.66;2089557;28;20172;-66
2023/09/03 01:08:53;;;;;;;0.10;0.10;;;;;;;19.73;100.00;101842.31;2089554;28;20476;-66
2023/09/03 01:09:53;;;;;;;0.37;0.37;;;;;;;18.95;100.00;101718.28;2089324;28;20183;-67
2023/09/03 01:11:23;;;;;;;0.10;0.10;;;;;;;19.73;100.00;101836.69;2089661;28;20168;-66
2023/09/03 01:12:51;;;;;;;0.40;0.17;;;;;;;19.52;100.00;101843.22;2088859;28;20722;-67
2023/09/03 01:14:36;;;;;;;0.20;0.20;;;;;;;19.54;100.00;101844.31;2089308;28;20476;-66
2023/09/03 01:15:44;;;;;;;0.10;0.10;;;;;;;19.52;100.00;101843.22;2079201;28;20840;-66
2023/09/03 01:16:53;;;;;;;0.00;0.00;;;;;;;19.45;100.00;101846.34;2073092;28;20932;-67
2023/09/03 01:18:12;;;;;;;0.30;0.30;;;;;;;19.48;100.00;101846.19;2065009;28;20436;-66
2023/09/03 01:19:43;;;;;;;1.20;0.60;;;;;;;19.43;100.00;101843.97;2065092;28;20440;-66
2023/09/03 01:21:02;;;;;;;0.10;0.10;;;;;;;19.33;100.00;101847.22;2064071;28;20439;-66
2023/09/03 01:22:11;;;;;;;0.20;0.20;;;;;;;19.28;100.00;101833.75;2069100;28;21004;-66
2023/09/03 01:23:21;;;;;;;0.20;0.20;;;;;;;19.33;100.00;101848.00;2072448;28;20435;-66
2023/09/03 01:24:56;;;;;;;0.20;0.20;;;;;;;19.33;100.00;101847.22;2072709;28;20408;-66
2023/09/03 01:26:24;;;;;;;0.10;0.10;;;;;;;19.34;100.00;101849.56;2072189;28;20930;-66
2023/09/03 01:27:44;;;;;;;0.10;0.10;;;;;;;19.26;100.00;101853.94;2072239;28;20774;-67
2023/09/03 01:28:46;;;;;;;0.20;0.20;;;;;;;19.25;100.00;101849.53;2066555;28;20429;-66
2023/09/03 01:29:47;;;;;;;0.10;0.10;;;;;;;19.30;100.00;101845.34;2064910;28;20801;-66
2023/09/03 01:30:50;;;;;;;0.27;0.10;;;;;;;19.30;100.00;101843.31;2064946;28;20431;-66
2023/09/03 01:31:51;;;;;;;0.10;0.10;;;;;;;19.23;100.00;101835.16;2070886;28;20421;-67
2023/09/03 01:32:52;;;;;;;1.33;0.57;;;;;;;19.30;100.00;101842.53;2072935;28;20419;-66
2023/09/03 01:34:01;;;;;;;0.10;0.10;;;;;;;19.25;100.00;101832.66;2073042;28;20184;-67
2023/09/03 01:35:03;;;;;;;0.10;0.10;;;;;;;19.32;100.00;101846.44;2072834;28;20436;-67
2023/09/03 01:36:06;;;;;;;0.30;0.30;;;;;;;19.30;100.00;101843.31;2072407;28;20996;-66
2023/09/03 01:37:09;;;;;;;0.00;0.00;;;;;;;19.27;100.00;101832.22;2072505;28;20566;-66
2023/09/03 01:38:10;;;;;;;0.30;0.20;;;;;;;19.33;100.00;101836.75;2073079;28;20934;-67
2023/09/03 01:39:11;;;;;;;0.10;0.10;;;;;;;18.86;100.00;101771.63;2072887;28;20428;-66
2023/09/03 01:40:12;;;;;;;0.10;0.10;;;;;;;19.31;100.00;101844.88;2073120;28;20419;-66
2023/09/03 01:41:13;;;;;;;0.20;0.10;;;;;;;19.32;100.00;101846.44;2073121;28;20451;-66
2023/09/03 01:42:13;;;;;;;0.43;0.43;;;;;;;19.31;100.00;101841.28;2073640;28;20643;-66
2023/09/03 01:43:14;;;;;;;0.10;0.10;;;;;;;18.66;100.00;101734.72;2074736;28;20635;-66
2023/09/03 01:44:14;;;;;;;0.70;0.20;;;;;;;19.31;100.00;101844.88;2074601;28;20182;-66
2023/09/03 01:45:15;;;;;;;0.27;0.20;;;;;;;19.23;100.00;101843.59;2074667;28;20695;-66
2023/09/03 01:46:36;;;;;;;0.30;0.30;;;;;;;19.06;100.00;101825.41;2074653;28;20252;-66
2023/09/03 01:48:01;;;;;;;0.37;0.23;;;;;;;18.78;100.00;101778.75;2074639;28;20726;-66
2023/09/03 01:49:26;;;;;;;0.20;0.20;;;;;;;19.15;100.00;101852.75;2066528;28;20404;-66
2023/09/03 01:50:32;;;;;;;0.30;0.30;;;;;;;18.70;100.00;101782.31;2066472;28;20510;-66
2023/09/03 01:51:57;;;;;;;0.23;0.23;;;;;;;19.08;100.00;101845.38;2066501;28;20855;-66
2023/09/03 01:53:20;;;;;;;0.20;0.20;;;;;;;19.06;100.00;101844.28;2066499;28;20411;-66
2023/09/03 01:54:26;;;;;;;0.20;0.20;;;;;;;18.68;100.00;101791.19;2068710;28;20417;-66
2023/09/03 01:55:29;;;;;;;0.73;0.67;;;;;;;19.00;100.00;101843.31;2074528;28;20481;-66
2023/09/03 01:56:36;;;;;;;0.17;0.17;;;;;;;18.96;100.00;101846.25;2074483;28;20413;-66
2023/09/03 01:57:53;;;;;;;0.20;0.20;;;;;;;18.94;100.00;101840.31;2074586;28;20499;-67
2023/09/03 01:58:56;;;;;;;0.20;0.20;;;;;;;18.93;100.00;101841.56;2073402;28;20404;-67
2023/09/03 02:00:00;;;;;;;0.20;0.20;;;;;;;18.91;100.00;101841.25;2066328;28;20459;-66
2023/09/03 02:01:02;;;;;;;0.27;0.27;;;;;;;18.93;100.00;101849.22;2066361;28;20424;-66
2023/09/03 02:02:03;;;;;;;0.10;0.10;;;;;;;18.94;100.00;101851.53;2066341;28;20880;-66
2023/09/03 02:03:06;;;;;;;0.33;0.33;;;;;;;18.96;100.00;101856.72;2066336;28;20413;-66
2023/09/03 02:04:06;;;;;;;0.20;0.20;;;;;;;18.84;100.00;101823.88;2070377;28;20264;-66
2023/09/03 02:05:07;;;;;;;0.30;0.30;;;;;;;18.95;100.00;101846.72;2074383;28;20423;-67
2023/09/03 02:06:07;;;;;;;0.10;0.10;;;;;;;18.95;100.00;101841.09;2074469;28;20208;-66
2023/09/03 02:07:08;;;;;;;0.60;0.50;;;;;;;18.89;100.00;101828.91;2074457;28;20261;-67
2023/09/03 02:08:08;;;;;;;0.10;0.10;;;;;;;19.02;100.00;101846.44;2074477;28;20635;-66
2023/09/03 02:09:09;;;;;;;0.20;0.20;;;;;;;19.02;100.00;101849.25;2074434;28;20184;-66
2023/09/03 02:10:10;;;;;;;0.30;0.30;;;;;;;19.03;100.00;101843.16;2074498;28;20270;-66
2023/09/03 02:11:10;;;;;;;0.20;0.20;;;;;;;18.96;100.00;101845.47;2074515;28;20586;-66
2023/09/03 02:12:11;;;;;;;0.20;0.20;;;;;;;18.97;100.00;101844.22;2074453;28;20438;-67
2023/09/03 02:13:11;;;;;;;0.20;0.20;;;;;;;18.69;100.00;101798.38;2074467;28;20201;-66
2023/09/03 02:14:11;;;;;;;0.10;0.10;;;;;;;18.98;100.00;101829.72;2074508;28;20694;-67
2023/09/03 02:15:12;;;;;;;0.10;0.10;;;;;;;19.05;100.00;101842.72;2082313;28;20224;-66
2023/09/03 02:16:12;;;;;;;0.37;0.37;;;;;;;19.03;100.00;101839.59;2090939;28;20164;-67
2023/09/03 02:17:19;;;;;;;0.30;0.30;;;;;;;18.92;100.00;101840.00;2088497;28;20702;-66
2023/09/03 02:18:19;;;;;;;0.30;0.30;;;;;;;19.02;100.00;101847.22;2082618;28;20202;-66
2023/09/03 02:19:20;;;;;;;0.40;0.40;;;;;;;19.01;100.00;101848.47;2082886;28;20426;-66
2023/09/03 02:20:20;;;;;;;0.10;0.10;;;;;;;19.00;100.00;101840.50;2090732;28;20175;-66
2023/09/03 02:21:21;;;;;;;0.40;0.40;;;;;;;19.01;100.00;101839.25;2090778;28;20426;-67
2023/09/03 02:22:22;;;;;;;1.17;0.70;;;;;;;19.05;100.00;101839.91;2090723;28;20176;-66
2023/09/03 02:23:22;;;;;;;0.10;0.10;;;;;;;19.04;100.00;101839.09;2090749;28;20660;-66
2023/09/03 02:24:22;;;;;;;0.20;0.07;;;;;;;18.77;100.00;101793.28;2090625;28;20230;-66
2023/09/03 02:25:23;;;;;;;0.20;0.20;;;;;;;19.00;100.00;101830.06;2090782;28;20613;-66
2023/09/03 02:26:23;;;;;;;0.20;0.20;;;;;;;19.06;100.00;101835.84;2090649;28;20176;-66
2023/09/03 02:27:24;;;;;;;0.20;0.20;;;;;;;19.08;100.00;101834.13;2082664;28;20599;-66
2023/09/03 02:28:24;;;;;;;0.10;0.10;;;;;;;19.11;100.00;101836.03;2081961;28;20655;-67
2023/09/03 02:29:24;;;;;;;0.87;0.87;;;;;;;18.93;100.00;101807.09;2082478;28;20700;-66
2023/09/03 02:30:25;;;;;;;0.23;0.23;;;;;;;19.13;100.00;101835.56;2082440;28;20705;-66
2023/09/03 02:31:25;;;;;;;0.17;0.17;;;;;;;19.15;100.00;101833.06;2082373;28;20186;-66
2023/09/03 02:32:26;;;;;;;1.50;1.40;;;;;;;19.16;100.00;101837.44;2082529;28;20176;-66
2023/09/03 02:33:26;;;;;;;0.00;0.00;;;;;;;19.18;100.00;101832.16;2089918;28;20270;-66
2023/09/03 02:34:26;;;;;;;0.10;0.10;;;;;;;19.18;100.00;101837.78;2090616;28;20627;-66
2023/09/03 02:35:27;;;;;;;0.50;0.50;;;;;;;19.20;100.00;101827.66;2090544;28;20210;-66
2023/09/03 02:36:28;;;;;;;0.20;0.20;;;;;;;18.17;100.00;101669.25;2090563;28;20577;-67
2023/09/03 02:37:28;;;;;;;0.20;0.20;;;;;;;19.04;100.00;101802.59;2090613;28;20204;-66
2023/09/03 02:38:28;;;;;;;0.30;0.30;;;;;;;19.23;100.00;101840.00;2090614;28;20669;-67
2023/09/03 02:39:29;;;;;;;0.20;0.20;;;;;;;18.41;100.00;101703.22;2090634;28;20172;-66
2023/09/03 02:40:29;;;;;;;1.00;0.80;;;;;;;19.27;100.00;101832.22;2090626;28;20203;-67
2023/09/03 02:41:31;;;;;;;0.20;0.20;;;;;;;19.28;100.00;101833.75;2090703;28;20172;-66
2023/09/03 02:42:31;;;;;;;0.60;0.50;;;;;;;19.23;100.00;101832.34;2090737;28;20262;-66
2023/09/03 02:43:32;;;;;;;0.10;0.10;;;;;;;19.26;100.00;101833.47;2090571;28;20417;-67
2023/09/03 02:44:32;;;;;;;0.33;0.30;;;;;;;19.25;100.00;101826.28;2090290;28;20262;-66
2023/09/03 02:45:32;;;;;;;0.10;0.10;;;;;;;18.66;100.00;101743.13;2090624;28;20257;-67
2023/09/03 02:46:33;;;;;;;0.40;0.40;;;;;;;19.23;100.00;101828.75;2090465;28;20195;-66
2023/09/03 02:47:33;;;;;;;0.30;0.30;;;;;;;19.23;100.00;101826.72;2090658;28;20214;-66
2023/09/03 02:48:34;;;;;;;0.10;0.10;;;;;;;19.23;100.00;101828.75;2090651;28;20180;-67
2023/09/03 02:49:34;;;;;;;0.30;0.20;;;;;;;19.18;100.00;101821.69;2090508;28;20187;-66
2023/09/03 02:50:38;;;;;;;0.50;0.20;;;;;;;18.17;100.00;101664.44;2090624;28;20261;-67
2023/09/03 02:51:38;;;;;;;0.30;0.30;;;;;;;18.52;100.00;101724.03;2090538;28;20167;-67
2023/09/03 02:52:38;;;;;;;0.20;0.20;;;;;;;19.18;100.00;101824.50;2090516;28;20434;-67
2023/09/03 02:53:41;;;;;;;0.30;0.30;;;;;;;18.72;100.00;101760.19;2090316;28;20259;-66
2023/09/03 02:54:41;;;;;;;3.83;1.23;;;;;;;19.11;100.00;101821.97;2090473;28;20173;-66
2023/09/03 02:55:41;;;;;;;0.50;0.50;;;;;;;19.10;100.00;101825.25;2090547;28;20432;-66
2023/09/03 02:56:42;;;;;;;0.33;0.33;;;;;;;19.01;100.00;101823.19;2090499;28;20222;-66
2023/09/03 02:57:42;;;;;;;0.10;0.10;;;;;;;19.06;100.00;101831.03;2090636;28;20172;-66
2023/09/03 02:58:46;;;;;;;0.30;0.20;;;;;;;19.01;100.00;101826.00;2090487;28;20182;-66
2023/09/03 02:59:47;;;;;;;0.43;0.20;;;;;;;19.02;100.00;101826.75;2090498;28;20318;-66
2023/09/03 03:00:47;;;;;;;0.50;0.50;;;;;;;19.02;100.00;101826.75;2089594;28;20997;-66
2023/09/03 03:01:47;;;;;;;0.40;0.40;;;;;;;19.02;100.00;101829.56;2090379;28;20270;-66
2023/09/03 03:02:48;;;;;;;0.10;0.10;;;;;;;19.04;100.00;101825.06;2090391;28;20560;-66
2023/09/03 03:03:48;;;;;;;0.00;0.00;;;;;;;19.00;100.00;101824.44;2090403;28;20181;-66
2023/09/03 03:04:49;;;;;;;0.10;0.10;;;;;;;17.99;100.00;101671.97;2090432;28;20270;-67
2023/09/03 03:05:53;;;;;;;0.10;0.10;;;;;;;18.98;100.00;101821.28;2090382;28;20604;-66
2023/09/03 03:06:53;;;;;;;0.60;0.60;;;;;;;18.99;100.00;101825.66;2086978;28;20271;-66
2023/09/03 03:07:55;;;;;;;0.10;0.10;;;;;;;18.93;100.00;101823.94;2082750;28;20424;-66
2023/09/03 03:08:56;;;;;;;0.37;0.37;;;;;;;18.76;100.00;101800.13;2090450;28;20194;-67
2023/09/03 03:09:56;;;;;;;0.30;0.30;;;;;;;18.89;100.00;101826.84;2090206;28;20950;-66
2023/09/03 03:11:11;;;;;;;0.10;0.10;;;;;;;18.86;100.00;101824.19;2090470;28;20599;-66
2023/09/03 03:12:11;;;;;;;0.23;0.23;;;;;;;18.84;100.00;101830.25;2090442;28;20245;-66
2023/09/03 03:13:11;;;;;;;0.43;0.40;;;;;;;18.77;100.00;101832.59;2090136;28;20438;-66
2023/09/03 03:14:13;;;;;;;0.10;0.10;;;;;;;18.75;100.00;101829.44;2090345;28;20198;-66
2023/09/03 03:15:13;;;;;;;0.23;0.20;;;;;;;18.72;100.00;101833.94;2090171;28;20751;-66
2023/09/03 03:16:15;;;;;;;0.20;0.20;;;;;;;18.48;100.00;101806.81;2090374;28;20418;-66
2023/09/03 03:17:15;;;;;;;0.10;0.10;;;;;;;18.22;100.00;101768.91;2090050;28;20176;-66
2023/09/03 03:18:16;;;;;;;0.23;0.23;;;;;;;18.51;100.00;101805.88;2090348;28;20413;-66
2023/09/03 03:19:16;;;;;;;0.20;0.20;;;;;;;18.66;100.00;101830.19;2090366;28;20168;-66
2023/09/03 03:20:17;;;;;;;0.30;0.20;;;;;;;18.59;100.00;101824.06;2089761;28;20201;-67
2023/09/03 03:21:19;;;;;;;0.20;0.20;;;;;;;18.76;100.00;101820.56;2089775;28;20262;-66
2023/09/03 03:22:19;;;;;;;0.20;0.20;;;;;;;18.03;100.00;101742.75;2090008;28;20215;-66
2023/09/03 03:23:20;;;;;;;0.23;0.23;;;;;;;18.67;100.00;101831.75;2090194;28;20422;-66
2023/09/03 03:24:21;;;;;;;0.10;0.10;;;;;;;18.31;100.00;101780.94;2090275;28;20585;-66
2023/09/03 03:25:21;;;;;;;0.77;0.63;;;;;;;18.68;100.00;101844.53;2090208;28;20172;-66
2023/09/03 03:26:22;;;;;;;0.47;0.47;;;;;;;18.69;100.00;101842.50;2090251;28;20188;-66
2023/09/03 03:27:23;;;;;;;0.10;0.10;;;;;;;18.68;100.00;101838.91;2090210;28;20553;-66
2023/09/03 03:28:24;;;;;;;0.37;0.20;;;;;;;18.68;100.00;101833.31;2090244;28;20176;-66
2023/09/03 03:29:24;;;;;;;0.20;0.20;;;;;;;18.70;100.00;101833.63;2090244;28;20414;-67
2023/09/03 03:30:26;;;;;;;0.50;0.30;;;;;;;17.58;100.00;101675.84;2090174;28;20258;-67
2023/09/03 03:31:26;;;;;;;0.10;0.10;;;;;;;18.66;100.00;101838.59;2090192;28;20176;-66
2023/09/03 03:32:28;;;;;;;0.00;0.00;;;;;;;18.66;100.00;101841.41;2090193;28;20407;-66
2023/09/03 03:33:28;;;;;;;0.33;0.33;;;;;;;17.99;100.00;101739.28;2090180;28;20209;-67
2023/09/03 03:34:28;;;;;;;0.20;0.20;;;;;;;18.65;100.00;101842.66;2090281;28;20426;-66
2023/09/03 03:35:29;;;;;;;1.30;0.60;;;;;;;18.58;100.00;101847.75;2090190;28;20271;-66
2023/09/03 03:36:29;;;;;;;0.10;0.10;;;;;;;18.59;100.00;101843.69;2089446;28;20600;-67
2023/09/03 03:37:30;;;;;;;0.10;0.10;;;;;;;18.57;100.00;101835.72;2089527;28;20747;-66
2023/09/03 03:38:30;;;;;;;0.03;0.03;;;;;;;18.52;100.00;101841.16;2090146;28;20172;-66
2023/09/03 03:39:31;;;;;;;0.83;0.57;;;;;;;18.49;100.00;101839.25;2090191;28;20184;-67
2023/09/03 03:40:31;;;;;;;0.13;0.13;;;;;;;18.43;100.00;101827.84;2089847;28;20172;-66
2023/09/03 03:41:32;;;;;;;0.23;0.23;;;;;;;18.46;100.00;101837.34;2090233;28;20180;-66
2023/09/03 03:42:32;;;;;;;0.30;0.30;;;;;;;18.49;100.00;101839.25;2090130;28;20208;-66
2023/09/03 03:43:33;;;;;;;0.10;0.10;;;;;;;18.48;100.00;101840.50;2090178;28;20181;-66
2023/09/03 03:44:34;;;;;;;0.13;0.13;;;;;;;18.45;100.00;101841.41;2089930;28;20212;-66
2023/09/03 03:45:34;;;;;;;0.30;0.20;;;;;;;18.48;100.00;101846.13;2090022;28;20202;-66
2023/09/03 03:46:35;;;;;;;0.20;0.20;;;;;;;18.39;100.00;101821.59;2082261;28;20185;-67
2023/09/03 03:47:36;;;;;;;0.33;0.33;;;;;;;18.53;100.00;101845.53;2081830;28;20207;-66
2023/09/03 03:48:37;;;;;;;0.10;0.10;;;;;;;18.53;100.00;101849.09;2081883;28;20173;-67
2023/09/03 03:49:37;;;;;;;0.20;0.20;;;;;;;18.56;100.00;101839.78;2081885;28;20499;-66
2023/09/03 03:50:37;;;;;;;1.03;0.70;;;;;;;18.57;100.00;101837.78;2083173;28;20232;-66
2023/09/03 03:51:38;;;;;;;0.10;0.10;;;;;;;18.60;100.00;101843.25;2090080;28;20203;-66
2023/09/03 03:52:40;;;;;;;0.10;0.00;;;;;;;18.64;100.00;101848.72;2089836;28;20195;-66
2023/09/03 03:53:41;;;;;;;0.20;0.20;;;;;;;18.65;100.00;101862.31;2090102;28;20631;-66
2023/09/03 03:54:41;;;;;;;0.10;0.10;;;;;;;18.68;100.00;101846.56;2090131;28;20437;-66
2023/09/03 03:55:41;;;;;;;0.20;0.20;;;;;;;18.71;100.00;101845.63;2090105;28;20211;-66
2023/09/03 03:56:42;;;;;;;0.30;0.30;;;;;;;18.52;100.00;101811.06;2089228;28;20563;-67
2023/09/03 03:57:42;;;;;;;0.60;0.60;;;;;;;18.72;100.00;101842.38;2089430;28;20673;-66
2023/09/03 03:58:43;;;;;;;0.10;0.10;;;;;;;18.72;100.00;101848.00;2090132;28;20179;-66
2023/09/03 03:59:44;;;;;;;0.20;0.20;;;;;;;18.57;100.00;101820.94;2090082;28;20176;-67
2023/09/03 04:00:44;;;;;;;0.30;0.30;;;;;;;18.72;100.00;101853.63;2090034;28;20407;-67
2023/09/03 04:01:45;;;;;;;0.13;0.13;;;;;;;18.75;100.00;101846.28;2090025;28;20176;-66
2023/09/03 04:02:45;;;;;;;0.43;0.30;;;;;;;18.70;100.00;101844.06;2089890;28;20203;-66
2023/09/03 04:03:48;;;;;;;0.30;0.30;;;;;;;18.79;100.00;101856.13;2090052;28;20287;-66
2023/09/03 04:04:53;;;;;;;0.10;0.10;;;;;;;18.77;100.00;101855.81;2089477;28;20180;-67
2023/09/03 04:06:01;;;;;;;0.10;0.10;;;;;;;18.77;100.00;101849.44;2090015;28;20418;-66
2023/09/03 04:07:01;;;;;;;0.30;0.30;;;;;;;18.80;100.00;101856.94;2089930;28;20450;-66
2023/09/03 04:08:02;;;;;;;2.30;0.93;;;;;;;18.82;100.00;101857.25;2090058;28;20464;-67
2023/09/03 04:09:02;;;;;;;0.30;0.30;;;;;;;18.80;100.00;101849.31;2090016;28;20310;-66
2023/09/03 04:10:03;;;;;;;0.23;0.23;;;;;;;18.74;100.00;101837.09;2089861;28;20602;-66
2023/09/03 04:11:05;;;;;;;0.10;0.10;;;;;;;18.40;100.00;101777.44;2089883;28;20183;-67
2023/09/03 04:12:06;;;;;;;0.10;0.10;;;;;;;18.86;100.00;101855.88;2089951;28;20168;-66
2023/09/03 04:13:06;;;;;;;0.10;0.10;;;;;;;18.88;100.00;101859.00;2089907;28;21000;-66
2023/09/03 04:14:07;;;;;;;0.20;0.20;;;;;;;18.88;100.00;101858.25;2089953;28;20238;-66
2023/09/03 04:15:08;;;;;;;0.50;0.23;;;;;;;18.86;100.00;101852.28;2089622;28;20224;-66
2023/09/03 04:16:14;;;;;;;0.30;0.30;;;;;;;18.95;100.00;101857.97;2090020;28;20259;-66
2023/09/03 04:17:14;;;;;;;0.90;0.67;;;;;;;18.94;100.00;101859.19;2089996;28;20642;-67
2023/09/03 04:18:14;;;;;;;0.20;0.20;;;;;;;18.98;100.00;101854.25;2089977;28;20438;-66
2023/09/03 04:19:15;;;;;;;0.00;0.00;;;;;;;18.99;100.00;101855.78;2089928;28;20243;-66
2023/09/03 04:20:15;;;;;;;0.10;0.10;;;;;;;18.99;100.00;101853.00;2089925;28;20246;-66
2023/09/03 04:21:17;;;;;;;0.30;0.20;;;;;;;19.00;100.00;101849.72;2089856;28;20242;-66
2023/09/03 04:22:17;;;;;;;0.30;0.20;;;;;;;18.99;100.00;101853.75;2089847;28;20181;-67
2023/09/03 04:23:17;;;;;;;0.30;0.30;;;;;;;19.02;100.00;101846.44;2089828;28;20450;-67
2023/09/03 04:24:18;;;;;;;0.10;0.10;;;;;;;19.01;100.00;101848.47;2089059;28;20172;-66
2023/09/03 04:25:18;;;;;;;0.10;0.10;;;;;;;19.04;100.00;101850.34;2089208;28;20180;-66
2023/09/03 04:26:19;;;;;;;0.30;0.20;;;;;;;19.01;100.00;101859.72;2089776;28;20263;-66
2023/09/03 04:27:19;;;;;;;0.20;0.20;;;;;;;19.07;100.00;101849.44;2089771;28;20172;-66
2023/09/03 04:28:20;;;;;;;0.10;0.10;;;;;;;19.10;100.00;101856.94;2089690;28;20175;-66
2023/09/03 04:29:20;;;;;;;0.20;0.20;;;;;;;19.13;100.00;101860.88;2083106;28;20184;-67
2023/09/03 04:30:21;;;;;;;0.20;0.20;;;;;;;19.16;100.00;101849.47;2081486;28;21006;-66
2023/09/03 04:31:21;;;;;;;0.20;0.10;;;;;;;19.14;100.00;101846.34;2081573;28;20677;-67
2023/09/03 04:32:22;;;;;;;0.20;0.20;;;;;;;19.20;100.00;101849.34;2087136;28;20188;-66
2023/09/03 04:33:23;;;;;;;0.30;0.20;;;;;;;19.24;100.00;101866.88;2089783;28;20172;-66
2023/09/03 04:34:23;;;;;;;0.57;0.43;;;;;;;19.28;100.00;101859.84;2089744;28;20180;-66
2023/09/03 04:35:24;;;;;;;0.30;0.30;;;;;;;19.26;100.00;101856.72;2089775;28;20268;-66
2023/09/03 04:36:24;;;;;;;0.20;0.20;;;;;;;19.30;100.00;101846.09;2089837;28;20671;-67
2023/09/03 04:37:24;;;;;;;0.10;0.10;;;;;;;19.36;100.00;101847.09;2089743;28;20679;-66
2023/09/03 04:38:26;;;;;;;0.30;0.20;;;;;;;19.38;100.00;101853.03;2089798;28;20273;-66
2023/09/03 04:39:27;;;;;;;0.47;0.40;;;;;;;19.42;100.00;101850.84;2089740;28;20181;-67
2023/09/03 04:40:27;;;;;;;0.23;0.17;;;;;;;19.32;100.00;101835.19;2089725;28;20425;-67
2023/09/03 04:41:28;;;;;;;0.20;0.20;;;;;;;19.42;100.00;101853.66;2089517;28;20203;-67
2023/09/03 04:42:28;;;;;;;0.27;0.20;;;;;;;19.42;100.00;101848.03;2089084;28;20665;-67
2023/09/03 04:43:29;;;;;;;0.30;0.10;;;;;;;19.45;100.00;101851.97;2089139;28;20171;-66
2023/09/03 04:44:48;;;;;;;0.30;0.30;;;;;;;19.51;100.00;101848.09;2089626;28;20264;-67
2023/09/03 04:45:51;;;;;;;0.57;0.50;;;;;;;19.57;100.00;101856.66;2087140;28;20184;-66
2023/09/03 04:46:51;;;;;;;0.30;0.30;;;;;;;18.82;100.00;101728.84;2081412;28;20410;-67
2023/09/03 04:47:52;;;;;;;0.53;0.53;;;;;;;19.57;100.00;101845.41;2081391;28;20414;-66